sensor_id;sensor_type;location;lat;lon;timestamp;pressure;altitude;pressure_sealevel;temperature;humidity
75699;BME280;64313;51.018;13.742;2023-11-22T00:00:47;100276.38;;;1.79;78.42
75699;BME280;64313;51.018;13.742;2023-11-22T00:03:12;100277.19;;;1.80;78.29
75699;BME280;64313;51.018;13.742;2023-11-22T00:05:38;100275.53;;;1.79;77.75
75699;BME280;64313;51.018;13.742;2023-11-22T00:08:03;100275.00;;;1.75;77.95
75699;BME280;64313;51.018;13.742;2023-11-22T00:10:29;100277.91;;;1.72;78.53
75699;BME280;64313;51.018;13.742;2023-11-22T00:12:54;100278.03;;;1.71;78.54
75699;BME280;64313;51.018;13.742;2023-11-22T00:15:19;100279.41;;;1.65;78.09
75699;BME280;64313;51.018;13.742;2023-11-22T00:17:45;100267.25;;;1.64;78.99
75699;BME280;64313;51.018;13.742;2023-11-22T00:20:11;100277.06;;;1.62;78.65
75699;BME280;64313;51.018;13.742;2023-11-22T00:22:36;100279.69;;;1.62;78.45
75699;BME280;64313;51.018;13.742;2023-11-22T00:25:02;100285.22;;;1.59;78.73
75699;BME280;64313;51.018;13.742;2023-11-22T00:27:29;100281.06;;;1.56;78.79
75699;BME280;64313;51.018;13.742;2023-11-22T00:29:55;100279.41;;;1.55;79.32
75699;BME280;64313;51.018;13.742;2023-11-22T00:32:20;100285.50;;;1.56;79.08
75699;BME280;64313;51.018;13.742;2023-11-22T00:34:46;100284.53;;;1.57;79.50
75699;BME280;64313;51.018;13.742;2023-11-22T00:37:13;100277.47;;;1.57;78.37
75699;BME280;64313;51.018;13.742;2023-11-22T00:39:38;100278.44;;;1.56;78.89
75699;BME280;64313;51.018;13.742;2023-11-22T00:42:04;100282.72;;;1.57;78.66
75699;BME280;64313;51.018;13.742;2023-11-22T00:44:32;100289.94;;;1.55;78.36
75699;BME280;64313;51.018;13.742;2023-11-22T00:46:58;100297.66;;;1.57;78.51
75699;BME280;64313;51.018;13.742;2023-11-22T00:49:24;100298.66;;;1.56;79.58
75699;BME280;64313;51.018;13.742;2023-11-22T00:51:49;100306.53;;;1.56;79.01
75699;BME280;64313;51.018;13.742;2023-11-22T00:54:16;100315.25;;;1.56;78.71
75699;BME280;64313;51.018;13.742;2023-11-22T00:56:41;100307.50;;;1.55;78.55
75699;BME280;64313;51.018;13.742;2023-11-22T00:59:07;100313.59;;;1.55;78.48
75699;BME280;64313;51.018;13.742;2023-11-22T01:01:32;100317.44;;;1.51;78.27
75699;BME280;64313;51.018;13.742;2023-11-22T01:03:57;100324.63;;;1.49;78.01
75699;BME280;64313;51.018;13.742;2023-11-22T01:06:24;100324.75;;;1.48;78.21
75699;BME280;64313;51.018;13.742;2023-11-22T01:08:49;100325.16;;;1.43;78.13
75699;BME280;64313;51.018;13.742;2023-11-22T01:11:15;100332.91;;;1.45;78.56
75699;BME280;64313;51.018;13.742;2023-11-22T01:13:40;100339.97;;;1.44;78.66
75699;BME280;64313;51.018;13.742;2023-11-22T01:16:09;100346.06;;;1.45;78.79
75699;BME280;64313;51.018;13.742;2023-11-22T01:18:34;100339.97;;;1.44;77.45
75699;BME280;64313;51.018;13.742;2023-11-22T01:21:00;100347.28;;;1.41;77.34
75699;BME280;64313;51.018;13.742;2023-11-22T01:23:25;100353.50;;;1.40;77.44
75699;BME280;64313;51.018;13.742;2023-11-22T01:25:53;100358.63;;;1.41;78.52
75699;BME280;64313;51.018;13.742;2023-11-22T01:28:19;100357.09;;;1.39;77.71
75699;BME280;64313;51.018;13.742;2023-11-22T01:30:45;100366.78;;;1.38;77.42
75699;BME280;64313;51.018;13.742;2023-11-22T01:33:14;100367.63;;;1.39;77.49
75699;BME280;64313;51.018;13.742;2023-11-22T01:35:40;100372.88;;;1.39;77.42
75699;BME280;64313;51.018;13.742;2023-11-22T01:38:06;100372.03;;;1.38;77.17
75699;BME280;64313;51.018;13.742;2023-11-22T01:40:31;100379.22;;;1.36;77.92
75699;BME280;64313;51.018;13.742;2023-11-22T01:42:58;100376.72;;;1.34;77.81
75699;BME280;64313;51.018;13.742;2023-11-22T01:45:23;100388.19;;;1.33;77.83
75699;BME280;64313;51.018;13.742;2023-11-22T01:47:48;100370.78;;;1.32;77.25
75699;BME280;64313;51.018;13.742;2023-11-22T01:50:14;100378.94;;;1.29;77.43
75699;BME280;64313;51.018;13.742;2023-11-22T01:52:40;100378.34;;;1.26;78.17
75699;BME280;64313;51.018;13.742;2023-11-22T01:55:06;100385.41;;;1.25;78.10
75699;BME280;64313;51.018;13.742;2023-11-22T01:57:32;100378.34;;;1.26;78.09
75699;BME280;64313;51.018;13.742;2023-11-22T02:00:01;100388.72;;;1.27;78.24
75699;BME280;64313;51.018;13.742;2023-11-22T02:02:38;100388.47;;;1.30;77.20
75699;BME280;64313;51.018;13.742;2023-11-22T02:05:03;100382.50;;;1.28;78.69
75699;BME280;64313;51.018;13.742;2023-11-22T02:07:30;100391.66;;;1.34;78.32
75699;BME280;64313;51.018;13.742;2023-11-22T02:09:59;100377.53;;;1.35;77.93
75699;BME280;64313;51.018;13.742;2023-11-22T02:12:24;100373.25;;;1.34;78.45
75699;BME280;64313;51.018;13.742;2023-11-22T02:14:49;100373.97;;;1.36;78.20
75699;BME280;64313;51.018;13.742;2023-11-22T02:17:15;100376.47;;;1.38;78.59
75699;BME280;64313;51.018;13.742;2023-11-22T02:19:43;100371.34;;;1.36;77.87
75699;BME280;64313;51.018;13.742;2023-11-22T02:22:11;100371.47;;;1.34;77.18
75699;BME280;64313;51.018;13.742;2023-11-22T02:24:36;100370.53;;;1.35;77.59
75699;BME280;64313;51.018;13.742;2023-11-22T02:27:02;100381.03;;;1.35;77.64
75699;BME280;64313;51.018;13.742;2023-11-22T02:29:27;100388.19;;;1.33;77.20
75699;BME280;64313;51.018;13.742;2023-11-22T02:31:53;100394.28;;;1.34;77.50
75699;BME280;64313;51.018;13.742;2023-11-22T02:34:19;100396.06;;;1.33;76.75
75699;BME280;64313;51.018;13.742;2023-11-22T02:36:44;100403.97;;;1.33;76.64
75699;BME280;64313;51.018;13.742;2023-11-22T02:39:10;100404.09;;;1.32;77.60
75699;BME280;64313;51.018;13.742;2023-11-22T02:41:36;100406.88;;;1.30;77.18
75699;BME280;64313;51.018;13.742;2023-11-22T02:44:01;100412.25;;;1.29;77.35
75699;BME280;64313;51.018;13.742;2023-11-22T02:46:27;100416.78;;;1.27;78.06
75699;BME280;64313;51.018;13.742;2023-11-22T02:48:52;100422.19;;;1.25;77.00
75699;BME280;64313;51.018;13.742;2023-11-22T02:51:19;100422.44;;;1.22;76.48
75699;BME280;64313;51.018;13.742;2023-11-22T02:53:49;100431.56;;;1.18;76.87
75699;BME280;64313;51.018;13.742;2023-11-22T02:56:15;100431.69;;;1.17;77.75
75699;BME280;64313;51.018;13.742;2023-11-22T02:58:41;100427.50;;;1.14;77.30
75699;BME280;64313;51.018;13.742;2023-11-22T03:01:06;100430.13;;;1.14;78.03
75699;BME280;64313;51.018;13.742;2023-11-22T03:03:33;100420.47;;;1.15;77.62
75699;BME280;64313;51.018;13.742;2023-11-22T03:05:58;100425.00;;;1.13;77.12
75699;BME280;64313;51.018;13.742;2023-11-22T03:08:23;100425.16;;;1.11;77.19
75699;BME280;64313;51.018;13.742;2023-11-22T03:11:04;100425.16;;;1.11;77.18
75699;BME280;64313;51.018;13.742;2023-11-22T03:13:29;100421.56;;;1.12;76.81
75699;BME280;64313;51.018;13.742;2023-11-22T03:15:54;100427.63;;;1.13;76.14
75699;BME280;64313;51.018;13.742;2023-11-22T03:18:20;100427.63;;;1.13;76.54
75699;BME280;64313;51.018;13.742;2023-11-22T03:20:46;100431.94;;;1.14;76.69
75699;BME280;64313;51.018;13.742;2023-11-22T03:23:12;100437.03;;;1.15;76.90
75699;BME280;64313;51.018;13.742;2023-11-22T03:25:37;100445.91;;;1.14;76.13
75699;BME280;64313;51.018;13.742;2023-11-22T03:28:03;100451.16;;;1.14;76.64
75699;BME280;64313;51.018;13.742;2023-11-22T03:30:28;100458.19;;;1.14;76.78
75699;BME280;64313;51.018;13.742;2023-11-22T03:32:53;100463.22;;;1.17;76.92
75699;BME280;64313;51.018;13.742;2023-11-22T03:35:20;100467.63;;;1.16;77.54
75699;BME280;64313;51.018;13.742;2023-11-22T03:37:46;100459.75;;;1.16;76.85
75699;BME280;64313;51.018;13.742;2023-11-22T03:40:12;100463.31;;;1.15;76.98
75699;BME280;64313;51.018;13.742;2023-11-22T03:42:39;100472.16;;;1.14;77.21
75699;BME280;64313;51.018;13.742;2023-11-22T03:45:05;100489.84;;;1.12;76.48
75699;BME280;64313;51.018;13.742;2023-11-22T03:47:31;100502.03;;;1.13;77.08
75699;BME280;64313;51.018;13.742;2023-11-22T03:49:58;100500.38;;;1.12;77.13
75699;BME280;64313;51.018;13.742;2023-11-22T03:52:25;100503.00;;;1.12;77.49
75699;BME280;64313;51.018;13.742;2023-11-22T03:54:50;100499.66;;;1.10;76.71
75699;BME280;64313;51.018;13.742;2023-11-22T03:57:15;100511.00;;;1.11;77.56
75699;BME280;64313;51.018;13.742;2023-11-22T03:59:42;100513.63;;;1.11;76.92
75699;BME280;64313;51.018;13.742;2023-11-22T04:02:08;100513.63;;;1.11;77.37
75699;BME280;64313;51.018;13.742;2023-11-22T04:04:34;100522.34;;;1.11;76.53
75699;BME280;64313;51.018;13.742;2023-11-22T04:06:59;100531.19;;;1.10;76.84
75699;BME280;64313;51.018;13.742;2023-11-22T04:09:27;100536.44;;;1.10;76.36
75699;BME280;64313;51.018;13.742;2023-11-22T04:11:54;100529.50;;;1.09;76.66
75699;BME280;64313;51.018;13.742;2023-11-22T04:14:21;100535.63;;;1.10;76.67
75699;BME280;64313;51.018;13.742;2023-11-22T04:16:47;100533.91;;;1.08;76.77
75699;BME280;64313;51.018;13.742;2023-11-22T04:19:12;100550.66;;;1.07;76.89
75699;BME280;64313;51.018;13.742;2023-11-22T04:21:37;100548.97;;;1.06;76.13
75699;BME280;64313;51.018;13.742;2023-11-22T04:24:06;100557.00;;;1.05;76.89
75699;BME280;64313;51.018;13.742;2023-11-22T04:26:31;100560.59;;;1.04;76.39
75699;BME280;64313;51.018;13.742;2023-11-22T04:28:56;100566.06;;;1.01;76.11
75699;BME280;64313;51.018;13.742;2023-11-22T04:31:23;100573.25;;;0.99;76.81
75699;BME280;64313;51.018;13.742;2023-11-22T04:33:49;100586.38;;;0.99;76.99
75699;BME280;64313;51.018;13.742;2023-11-22T04:36:15;100574.09;;;0.99;76.59
75699;BME280;64313;51.018;13.742;2023-11-22T04:38:41;100581.84;;;1.01;77.03
75699;BME280;64313;51.018;13.742;2023-11-22T04:41:07;100585.28;;;1.01;76.49
75699;BME280;64313;51.018;13.742;2023-11-22T04:43:33;100594.13;;;1.00;76.43
75699;BME280;64313;51.018;13.742;2023-11-22T04:45:58;100598.69;;;0.98;76.63
75699;BME280;64313;51.018;13.742;2023-11-22T04:48:24;100597.03;;;0.97;76.61
75699;BME280;64313;51.018;13.742;2023-11-22T04:50:49;100602.50;;;0.94;77.14
75699;BME280;64313;51.018;13.742;2023-11-22T04:53:14;100607.75;;;0.94;77.04
75699;BME280;64313;51.018;13.742;2023-11-22T04:55:40;100613.16;;;0.93;76.96
75699;BME280;64313;51.018;13.742;2023-11-22T04:58:06;100600.00;;;0.93;76.45
75699;BME280;64313;51.018;13.742;2023-11-22T05:00:31;100595.84;;;0.90;76.78
75699;BME280;64313;51.018;13.742;2023-11-22T05:02:57;100605.50;;;0.90;77.13
75699;BME280;64313;51.018;13.742;2023-11-22T05:05:22;100615.16;;;0.89;77.21
75699;BME280;64313;51.018;13.742;2023-11-22T05:11:34;100627.47;;;0.89;77.15
75699;BME280;64313;51.018;13.742;2023-11-22T05:13:59;100635.59;;;0.86;76.08
75699;BME280;64313;51.018;13.742;2023-11-22T05:16:25;100635.75;;;0.84;75.87
75699;BME280;64313;51.018;13.742;2023-11-22T05:18:50;100630.34;;;0.86;76.06
75699;BME280;64313;51.018;13.742;2023-11-22T05:21:15;100640.03;;;0.85;76.12
75699;BME280;64313;51.018;13.742;2023-11-22T05:23:41;100637.50;;;0.84;75.39
75699;BME280;64313;51.018;13.742;2023-11-22T05:26:06;100640.38;;;0.80;75.60
75699;BME280;64313;51.018;13.742;2023-11-22T05:28:33;100637.75;;;0.80;75.83
75699;BME280;64313;51.018;13.742;2023-11-22T05:30:58;100642.31;;;0.78;75.62
75699;BME280;64313;51.018;13.742;2023-11-22T05:33:24;100638.13;;;0.76;74.97
75699;BME280;64313;51.018;13.742;2023-11-22T05:35:49;100643.50;;;0.74;75.19
75699;BME280;64313;51.018;13.742;2023-11-22T05:38:15;100635.75;;;0.73;75.43
75699;BME280;64313;51.018;13.742;2023-11-22T05:40:40;100639.34;;;0.72;76.02
75699;BME280;64313;51.018;13.742;2023-11-22T05:43:07;100642.78;;;0.72;75.38
75699;BME280;64313;51.018;13.742;2023-11-22T05:45:34;100634.91;;;0.72;75.25
75699;BME280;64313;51.018;13.742;2023-11-22T05:48:00;100633.13;;;0.73;75.65
75699;BME280;64313;51.018;13.742;2023-11-22T05:50:25;100648.13;;;0.71;75.44
75699;BME280;64313;51.018;13.742;2023-11-22T05:52:50;100650.91;;;0.69;76.19
75699;BME280;64313;51.018;13.742;2023-11-22T05:55:16;100657.09;;;0.68;75.98
75699;BME280;64313;51.018;13.742;2023-11-22T05:57:45;100655.31;;;0.69;76.79
75699;BME280;64313;51.018;13.742;2023-11-22T06:00:11;100653.38;;;0.71;76.51
75699;BME280;64313;51.018;13.742;2023-11-22T06:02:40;100654.34;;;0.70;76.28
75699;BME280;64313;51.018;13.742;2023-11-22T06:05:05;100659.50;;;0.71;77.00
75699;BME280;64313;51.018;13.742;2023-11-22T06:07:31;100661.28;;;0.71;76.14
75699;BME280;64313;51.018;13.742;2023-11-22T06:09:57;100657.72;;;0.72;76.60
75699;BME280;64313;51.018;13.742;2023-11-22T06:12:25;100675.25;;;0.71;76.06
75699;BME280;64313;51.018;13.742;2023-11-22T06:14:51;100676.91;;;0.72;76.56
75699;BME280;64313;51.018;13.742;2023-11-22T06:17:17;100671.75;;;0.71;76.43
75699;BME280;64313;51.018;13.742;2023-11-22T06:19:43;100677.88;;;0.71;76.26
75699;BME280;64313;51.018;13.742;2023-11-22T06:22:08;100680.50;;;0.71;76.64
75699;BME280;64313;51.018;13.742;2023-11-22T06:24:33;100687.44;;;0.72;76.43
75699;BME280;64313;51.018;13.742;2023-11-22T06:27:01;100689.91;;;0.74;76.86
75699;BME280;64313;51.018;13.742;2023-11-22T06:29:27;100693.38;;;0.74;76.36
75699;BME280;64313;51.018;13.742;2023-11-22T06:31:52;100700.41;;;0.74;76.04
75699;BME280;64313;51.018;13.742;2023-11-22T06:38:05;100719.63;;;0.74;76.13
75699;BME280;64313;51.018;13.742;2023-11-22T06:40:30;100719.63;;;0.74;76.30
75699;BME280;64313;51.018;13.742;2023-11-22T06:42:56;100722.25;;;0.74;75.48
75699;BME280;64313;51.018;13.742;2023-11-22T06:45:21;100705.81;;;0.72;75.54
75699;BME280;64313;51.018;13.742;2023-11-22T06:47:47;100715.47;;;0.72;76.84
75699;BME280;64313;51.018;13.742;2023-11-22T06:50:12;100726.69;;;0.74;77.08
75699;BME280;64313;51.018;13.742;2023-11-22T06:52:38;100732.63;;;0.76;76.69
75699;BME280;64313;51.018;13.742;2023-11-22T06:55:04;100751.75;;;0.78;76.96
75699;BME280;64313;51.018;13.742;2023-11-22T06:57:30;100768.22;;;0.80;76.52
75699;BME280;64313;51.018;13.742;2023-11-22T06:59:56;100777.88;;;0.79;76.51
75699;BME280;64313;51.018;13.742;2023-11-22T07:02:23;100755.09;;;0.80;76.95
75699;BME280;64313;51.018;13.742;2023-11-22T07:04:49;100762.72;;;0.83;76.48
75699;BME280;64313;51.018;13.742;2023-11-22T07:07:14;100774.28;;;0.80;75.80
75699;BME280;64313;51.018;13.742;2023-11-22T07:09:43;100767.25;;;0.81;75.83
75699;BME280;64313;51.018;13.742;2023-11-22T07:12:09;100755.31;;;0.77;75.59
75699;BME280;64313;51.018;13.742;2023-11-22T07:14:35;100765.09;;;0.75;76.36
75699;BME280;64313;51.018;13.742;2023-11-22T07:17:02;100749.47;;;0.73;76.63
75699;BME280;64313;51.018;13.742;2023-11-22T07:19:27;100736.22;;;0.75;76.58
75699;BME280;64313;51.018;13.742;2023-11-22T07:21:53;100741.59;;;0.73;76.08
75699;BME280;64313;51.018;13.742;2023-11-22T07:24:21;100754.84;;;0.72;75.58
75699;BME280;64313;51.018;13.742;2023-11-22T07:26:49;100751.38;;;0.71;76.74
75699;BME280;64313;51.018;13.742;2023-11-22T07:29:14;100737.31;;;0.72;76.59
75699;BME280;64313;51.018;13.742;2023-11-22T07:31:40;100743.50;;;0.71;75.67
75699;BME280;64313;51.018;13.742;2023-11-22T07:34:07;100754.03;;;0.71;75.65
75699;BME280;64313;51.018;13.742;2023-11-22T07:36:34;100769.66;;;0.73;75.64
75699;BME280;64313;51.018;13.742;2023-11-22T07:39:00;100768.69;;;0.74;75.72
75699;BME280;64313;51.018;13.742;2023-11-22T07:41:25;100767.00;;;0.73;75.42
75699;BME280;64313;51.018;13.742;2023-11-22T07:43:51;100779.91;;;0.76;76.67
75699;BME280;64313;51.018;13.742;2023-11-22T07:46:16;100787.78;;;0.76;75.84
75699;BME280;64313;51.018;13.742;2023-11-22T07:48:44;100797.44;;;0.75;76.22
75699;BME280;64313;51.018;13.742;2023-11-22T07:51:13;100795.78;;;0.74;76.25
75699;BME280;64313;51.018;13.742;2023-11-22T07:53:38;100799.22;;;0.75;76.40
75699;BME280;64313;51.018;13.742;2023-11-22T07:56:05;100816.06;;;0.72;75.63
75699;BME280;64313;51.018;13.742;2023-11-22T07:58:31;100814.41;;;0.71;75.31
75699;BME280;64313;51.018;13.742;2023-11-22T08:00:58;100811.78;;;0.71;76.07
75699;BME280;64313;51.018;13.742;2023-11-22T08:03:25;100823.19;;;0.70;75.78
75699;BME280;64313;51.018;13.742;2023-11-22T08:05:54;100823.19;;;0.70;75.82
75699;BME280;64313;51.018;13.742;2023-11-22T08:08:24;100821.53;;;0.69;74.99
75699;BME280;64313;51.018;13.742;2023-11-22T08:10:50;100832.28;;;0.66;75.43
75699;BME280;64313;51.018;13.742;2023-11-22T08:13:19;100833.34;;;0.64;75.28
75699;BME280;64313;51.018;13.742;2023-11-22T08:15:45;100843.13;;;0.62;75.66
75699;BME280;64313;51.018;13.742;2023-11-22T08:18:12;100846.59;;;0.62;76.05
75699;BME280;64313;51.018;13.742;2023-11-22T08:20:37;100851.84;;;0.62;75.34
75699;BME280;64313;51.018;13.742;2023-11-22T08:23:03;100848.38;;;0.62;75.18
75699;BME280;64313;51.018;13.742;2023-11-22T08:25:31;100849.22;;;0.62;75.20
75699;BME280;64313;51.018;13.742;2023-11-22T08:27:57;100852.53;;;0.64;75.17
75699;BME280;64313;51.018;13.742;2023-11-22T08:30:22;100849.91;;;0.64;74.54
75699;BME280;64313;51.018;13.742;2023-11-22T08:32:48;100846.38;;;0.65;75.09
75699;BME280;64313;51.018;13.742;2023-11-22T08:35:19;100844.56;;;0.66;74.72
75699;BME280;64313;51.018;13.742;2023-11-22T08:37:45;100842.66;;;0.68;74.80
75699;BME280;64313;51.018;13.742;2023-11-22T08:40:12;100845.41;;;0.66;74.65
75699;BME280;64313;51.018;13.742;2023-11-22T08:42:39;100856.88;;;0.65;73.76
75699;BME280;64313;51.018;13.742;2023-11-22T08:45:06;100856.13;;;0.63;73.92
75699;BME280;64313;51.018;13.742;2023-11-22T08:47:34;100863.03;;;0.64;73.92
75699;BME280;64313;51.018;13.742;2023-11-22T08:50:00;100854.34;;;0.64;73.83
75699;BME280;64313;51.018;13.742;2023-11-22T08:52:28;100859.50;;;0.65;73.97
75699;BME280;64313;51.018;13.742;2023-11-22T08:54:56;100850.66;;;0.66;74.86
75699;BME280;64313;51.018;13.742;2023-11-22T08:57:21;100830.38;;;0.68;74.94
75699;BME280;64313;51.018;13.742;2023-11-22T08:59:47;100832.78;;;0.71;75.42
75699;BME280;64313;51.018;13.742;2023-11-22T09:02:13;100835.41;;;0.71;75.87
75699;BME280;64313;51.018;13.742;2023-11-22T09:04:40;100839.56;;;0.74;75.47
75699;BME280;64313;51.018;13.742;2023-11-22T09:07:07;100835.16;;;0.74;75.51
75699;BME280;64313;51.018;13.742;2023-11-22T09:09:32;100841.13;;;0.76;74.77
75699;BME280;64313;51.018;13.742;2023-11-22T09:12:00;100841.84;;;0.78;75.02
75699;BME280;64313;51.018;13.742;2023-11-22T09:14:25;100839.22;;;0.78;74.52
75699;BME280;64313;51.018;13.742;2023-11-22T09:16:52;100851.41;;;0.79;74.29
75699;BME280;64313;51.018;13.742;2023-11-22T09:19:24;100850.44;;;0.80;75.59
75699;BME280;64313;51.018;13.742;2023-11-22T09:21:50;100855.56;;;0.82;74.85
75699;BME280;64313;51.018;13.742;2023-11-22T09:24:16;100859.03;;;0.82;74.87
75699;BME280;64313;51.018;13.742;2023-11-22T09:26:42;100860.13;;;0.80;74.07
75699;BME280;64313;51.018;13.742;2023-11-22T09:29:08;100868.09;;;0.78;73.84
75699;BME280;64313;51.018;13.742;2023-11-22T09:31:35;100881.25;;;0.78;74.59
75699;BME280;64313;51.018;13.742;2023-11-22T09:34:01;100883.75;;;0.80;74.29
75699;BME280;64313;51.018;13.742;2023-11-22T09:36:28;100879.31;;;0.80;73.02
75699;BME280;64313;51.018;13.742;2023-11-22T09:38:55;100875.03;;;0.79;73.00
75699;BME280;64313;51.018;13.742;2023-11-22T09:41:20;100874.91;;;0.81;72.71
75699;BME280;64313;51.018;13.742;2023-11-22T09:43:46;100870.63;;;0.80;72.61
75699;BME280;64313;51.018;13.742;2023-11-22T09:46:15;100860.13;;;0.80;72.53
75699;BME280;64313;51.018;13.742;2023-11-22T09:48:42;100854.84;;;0.80;72.97
75699;BME280;64313;51.018;13.742;2023-11-22T09:53:57;100864.66;;;0.78;72.25
75699;BME280;64313;51.018;13.742;2023-11-22T09:56:30;100867.28;;;0.78;72.51
75699;BME280;64313;51.018;13.742;2023-11-22T09:58:59;100854.97;;;0.78;73.29
75699;BME280;64313;51.018;13.742;2023-11-22T10:01:26;100856.53;;;0.81;72.51
75699;BME280;64313;51.018;13.742;2023-11-22T10:03:55;100854.59;;;0.83;72.52
75699;BME280;64313;51.018;13.742;2023-11-22T10:06:21;100852.72;;;0.85;71.98
75699;BME280;64313;51.018;13.742;2023-11-22T10:08:47;100849.13;;;0.86;72.22
75699;BME280;64313;51.018;13.742;2023-11-22T10:11:15;100856.91;;;0.88;73.26
75699;BME280;64313;51.018;13.742;2023-11-22T10:13:42;100856.69;;;0.91;72.96
75699;BME280;64313;51.018;13.742;2023-11-22T10:16:13;100856.69;;;0.91;70.88
75699;BME280;64313;51.018;13.742;2023-11-22T10:18:47;100859.41;;;0.89;70.02
75699;BME280;64313;51.018;13.742;2023-11-22T10:21:29;100873.34;;;0.90;69.11
75699;BME280;64313;51.018;13.742;2023-11-22T10:24:01;100867.28;;;0.89;69.73
75699;BME280;64313;51.018;13.742;2023-11-22T10:26:27;100863.72;;;0.90;69.47
75699;BME280;64313;51.018;13.742;2023-11-22T10:28:54;100860.97;;;0.92;69.60
75699;BME280;64313;51.018;13.742;2023-11-22T10:31:20;100855.59;;;0.93;68.48
75699;BME280;64313;51.018;13.742;2023-11-22T10:33:47;100850.22;;;0.95;68.90
75699;BME280;64313;51.018;13.742;2023-11-22T10:36:13;100852.63;;;0.98;68.92
75699;BME280;64313;51.018;13.742;2023-11-22T10:38:40;100847.13;;;1.01;68.28
75699;BME280;64313;51.018;13.742;2023-11-22T10:41:08;100839.84;;;1.04;67.49
75699;BME280;64313;51.018;13.742;2023-11-22T10:43:35;100833.63;;;1.05;67.05
75699;BME280;64313;51.018;13.742;2023-11-22T10:46:05;100837.81;;;1.08;67.27
75699;BME280;64313;51.018;13.742;2023-11-22T10:48:34;100829.69;;;1.11;67.31
75699;BME280;64313;51.018;13.742;2023-11-22T10:51:01;100827.66;;;1.15;67.18
75699;BME280;64313;51.018;13.742;2023-11-22T10:53:44;100836.38;;;1.15;67.12
75699;BME280;64313;51.018;13.742;2023-11-22T10:56:14;100836.28;;;1.17;66.37
75699;BME280;64313;51.018;13.742;2023-11-22T11:01:10;100853.69;;;1.18;66.57
75699;BME280;64313;51.018;13.742;2023-11-22T11:03:39;100841.53;;;1.17;67.40
75699;BME280;64313;51.018;13.742;2023-11-22T11:06:08;100844.16;;;1.17;67.01
75699;BME280;64313;51.018;13.742;2023-11-22T11:08:38;100856.47;;;1.16;66.86
75699;BME280;64313;51.018;13.742;2023-11-22T11:11:04;100871.34;;;1.16;67.48
75699;BME280;64313;51.018;13.742;2023-11-22T11:13:31;100885.34;;;1.16;66.28
75699;BME280;64313;51.018;13.742;2023-11-22T11:15:57;100888.06;;;1.15;66.98
75699;BME280;64313;51.018;13.742;2023-11-22T11:18:24;100899.31;;;1.17;66.05
75699;BME280;64313;51.018;13.742;2023-11-22T11:20:51;100901.22;;;1.15;66.13
75699;BME280;64313;51.018;13.742;2023-11-22T11:23:19;100908.25;;;1.14;65.87
75699;BME280;64313;51.018;13.742;2023-11-22T11:25:48;100907.56;;;1.12;63.73
75699;BME280;64313;51.018;13.742;2023-11-22T11:28:14;100900.75;;;1.10;64.40
75699;BME280;64313;51.018;13.742;2023-11-22T11:33:09;100909.34;;;1.12;64.69
75699;BME280;64313;51.018;13.742;2023-11-22T11:35:46;100898.00;;;1.11;64.53
75699;BME280;64313;51.018;13.742;2023-11-22T11:38:13;100891.78;;;1.12;64.25
75699;BME280;64313;51.018;13.742;2023-11-22T11:40:40;100883.66;;;1.15;64.81
75699;BME280;64313;51.018;13.742;2023-11-22T11:43:06;100886.19;;;1.17;66.19
75699;BME280;64313;51.018;13.742;2023-11-22T11:45:37;100887.97;;;1.16;66.08
75699;BME280;64313;51.018;13.742;2023-11-22T11:48:04;100896.69;;;1.17;65.91
75699;BME280;64313;51.018;13.742;2023-11-22T11:50:30;100897.63;;;1.16;67.10
75699;BME280;64313;51.018;13.742;2023-11-22T11:52:56;100899.31;;;1.17;67.39
75699;BME280;64313;51.018;13.742;2023-11-22T11:55:21;100901.97;;;1.17;66.75
75699;BME280;64313;51.018;13.742;2023-11-22T11:57:46;100902.88;;;1.16;67.96
75699;BME280;64313;51.018;13.742;2023-11-22T12:00:13;100906.38;;;1.16;67.88
75699;BME280;64313;51.018;13.742;2023-11-22T12:02:42;100895.00;;;1.16;67.28
75699;BME280;64313;51.018;13.742;2023-11-22T12:05:08;100896.78;;;1.15;66.97
75699;BME280;64313;51.018;13.742;2023-11-22T12:07:37;100898.59;;;1.15;67.51
75699;BME280;64313;51.018;13.742;2023-11-22T12:10:03;100893.34;;;1.15;67.09
75699;BME280;64313;51.018;13.742;2023-11-22T12:12:29;100897.03;;;1.12;66.67
75699;BME280;64313;51.018;13.742;2023-11-22T12:14:55;100897.03;;;1.12;66.33
75699;BME280;64313;51.018;13.742;2023-11-22T12:17:22;100879.75;;;1.10;66.57
75699;BME280;64313;51.018;13.742;2023-11-22T12:19:47;100885.81;;;1.10;66.45
75699;BME280;64313;51.018;13.742;2023-11-22T12:22:14;100883.28;;;1.08;66.39
75699;BME280;64313;51.018;13.742;2023-11-22T12:24:42;100875.31;;;1.10;66.54
75699;BME280;64313;51.018;13.742;2023-11-22T12:27:11;100863.84;;;1.11;66.88
75699;BME280;64313;51.018;13.742;2023-11-22T12:29:37;100858.47;;;1.13;65.69
75699;BME280;64313;51.018;13.742;2023-11-22T12:32:03;100856.69;;;1.13;67.16
75699;BME280;64313;51.018;13.742;2023-11-22T12:34:28;100853.94;;;1.15;66.56
75699;BME280;64313;51.018;13.742;2023-11-22T12:36:55;100869.59;;;1.16;65.95
75699;BME280;64313;51.018;13.742;2023-11-22T12:39:21;100858.97;;;1.18;65.33
75699;BME280;64313;51.018;13.742;2023-11-22T12:41:49;100848.31;;;1.19;66.06
75699;BME280;64313;51.018;13.742;2023-11-22T12:44:16;100835.06;;;1.21;66.25
75699;BME280;64313;51.018;13.742;2023-11-22T12:46:52;100842.09;;;1.20;65.45
75699;BME280;64313;51.018;13.742;2023-11-22T12:49:25;100844.84;;;1.19;65.76
75699;BME280;64313;51.018;13.742;2023-11-22T12:51:52;100839.47;;;1.20;65.70
75699;BME280;64313;51.018;13.742;2023-11-22T12:54:18;100827.19;;;1.21;67.08
75699;BME280;64313;51.018;13.742;2023-11-22T12:56:48;100830.53;;;1.23;66.50
75699;BME280;64313;51.018;13.742;2023-11-22T12:59:14;100825.28;;;1.23;65.91
75699;BME280;64313;51.018;13.742;2023-11-22T13:01:39;100819.16;;;1.22;65.10